Princeton, Idaho
Current Conditions -  °F | °C
As of 5:15 AM on Monday 22 Dec 2014 (Local Time) from KPUW Reporting Station
Broken Clouds Broken Clouds  
Wind Chill: 33°   Ceiling: 1000
Heat Index: 40°   Visibility: 10mi
Dew Point: 37°   Wind: 12mph
Humidity: 89%   Direction: 260°W
Pressure: 30.06"   Gusts: NA
Location:  46.91°N, 116.83°W
Report Text: KPUW 221315Z AUTO 26010KT 10SM BKN010 04/03 A3006 RMK AO2 CIG 007V013 T00440028
Loading
Personal Weather Stations






























Interactive Weather Map New forecast layout! Learn more

10-Day Weather Forecast

Advertisements
Track Severe Weather on mobile